Welwyn, United Kingdom
Current Conditions -  °F | °C
As of 6:50 PM on Saturday 25 Oct 2014 (Local Time) from EGGW Reporting Station
Broken Clouds Broken Clouds  
Wind Chill: 54°   Ceiling: 4100
Heat Index: 54°   Visibility: 6mi
Dew Point: 46°   Wind: 8mph
Humidity: 77%   Direction: 200°SSW
Pressure: 30.09"   Gusts: NA
Location:  51.81°N, 0.18°W
Report Text: EGGW 251750Z 20007KT 170V240 9999 BKN041 12/08 Q1019
Loading
Personal Weather Stations






























Interactive Weather Map New forecast layout! Learn more

10-Day Weather Forecast

Advertisements
Track Severe Weather on mobile